sensor_id;sensor_type;location;lat;lon;timestamp;pressure;altitude;pressure_sealevel;temperature;humidity
61318;BME280;47201;40.428;-8.436;2023-03-04T00:01:49;101022.84;;;5.96;100.00
61318;BME280;47201;40.428;-8.436;2023-03-04T00:04:08;101018.66;;;5.99;100.00
61318;BME280;47201;40.428;-8.436;2023-03-04T00:06:28;101009.16;;;6.00;100.00
61318;BME280;47201;40.428;-8.436;2023-03-04T00:08:29;101015.28;;;6.03;100.00
61318;BME280;47201;40.428;-8.436;2023-03-04T00:10:29;101013.72;;;6.12;100.00
61318;BME280;47201;40.428;-8.436;2023-03-04T00:12:30;101014.69;;;6.15;100.00
61318;BME280;47201;40.428;-8.436;2023-03-04T00:14:31;101013.72;;;6.12;100.00
61318;BME280;47201;40.428;-8.436;2023-03-04T00:16:50;101019.75;;;6.09;100.00
61318;BME280;47201;40.428;-8.436;2023-03-04T00:18:51;101023.31;;;6.16;100.00
61318;BME280;47201;40.428;-8.436;2023-03-04T00:21:10;101021.13;;;6.34;100.00
61318;BME280;47201;40.428;-8.436;2023-03-04T00:23:29;101022.31;;;6.50;100.00
61318;BME280;47201;40.428;-8.436;2023-03-04T00:25:29;101015.63;;;6.62;100.00
61318;BME280;47201;40.428;-8.436;2023-03-04T00:27:32;101009.78;;;6.74;100.00
61318;BME280;47201;40.428;-8.436;2023-03-04T00:29:32;101012.47;;;6.78;100.00
61318;BME280;47201;40.428;-8.436;2023-03-04T00:31:33;101001.31;;;6.86;100.00
61318;BME280;47201;40.428;-8.436;2023-03-04T00:33:52;101006.59;;;6.89;100.00
61318;BME280;47201;40.428;-8.436;2023-03-04T00:35:53;101007.41;;;6.86;100.00
61318;BME280;47201;40.428;-8.436;2023-03-04T00:37:56;101003.28;;;6.97;100.00
61318;BME280;47201;40.428;-8.436;2023-03-04T00:40:16;100997.31;;;7.03;100.00
61318;BME280;47201;40.428;-8.436;2023-03-04T00:42:17;101001.84;;;7.13;100.00
61318;BME280;47201;40.428;-8.436;2023-03-04T00:44:17;100994.13;;;7.18;100.00
61318;BME280;47201;40.428;-8.436;2023-03-04T00:46:18;100995.09;;;7.25;100.00
61318;BME280;47201;40.428;-8.436;2023-03-04T00:48:38;100984.69;;;7.25;100.00
61318;BME280;47201;40.428;-8.436;2023-03-04T00:50:38;100990.69;;;7.21;100.00
61318;BME280;47201;40.428;-8.436;2023-03-04T00:52:57;100994.06;;;7.17;100.00
61318;BME280;47201;40.428;-8.436;2023-03-04T00:55:19;101002.69;;;7.12;100.00
61318;BME280;47201;40.428;-8.436;2023-03-04T00:57:20;100994.88;;;7.12;100.00
61318;BME280;47201;40.428;-8.436;2023-03-04T00:59:21;100994.03;;;7.13;100.00
61318;BME280;47201;40.428;-8.436;2023-03-04T01:01:21;100993.13;;;7.10;100.00
61318;BME280;47201;40.428;-8.436;2023-03-04T01:03:42;100993.97;;;7.10;100.00
61318;BME280;47201;40.428;-8.436;2023-03-04T01:06:01;100988.78;;;7.10;100.00
61318;BME280;47201;40.428;-8.436;2023-03-04T01:08:21;100993.88;;;7.04;100.00
61318;BME280;47201;40.428;-8.436;2023-03-04T01:10:42;100999.00;;;7.01;100.00
61318;BME280;47201;40.428;-8.436;2023-03-04T01:12:42;100998.97;;;6.98;100.00
61318;BME280;47201;40.428;-8.436;2023-03-04T01:15:02;100995.53;;;7.01;100.00
61318;BME280;47201;40.428;-8.436;2023-03-04T01:17:21;100998.16;;;7.01;100.00
61318;BME280;47201;40.428;-8.436;2023-03-04T01:19:40;100992.94;;;6.99;100.00
61318;BME280;47201;40.428;-8.436;2023-03-04T01:21:40;100999.78;;;6.95;100.00
61318;BME280;47201;40.428;-8.436;2023-03-04T01:23:59;100999.78;;;6.95;100.00
61318;BME280;47201;40.428;-8.436;2023-03-04T01:26:00;100993.59;;;6.89;100.00
61318;BME280;47201;40.428;-8.436;2023-03-04T01:28:20;100992.66;;;6.83;100.00
61318;BME280;47201;40.428;-8.436;2023-03-04T01:30:21;100989.22;;;6.85;100.00
61318;BME280;47201;40.428;-8.436;2023-03-04T01:32:24;100987.47;;;6.85;100.00
61318;BME280;47201;40.428;-8.436;2023-03-04T01:34:43;100982.22;;;6.82;100.00
61318;BME280;47201;40.428;-8.436;2023-03-04T01:36:44;100985.63;;;6.79;100.00
61318;BME280;47201;40.428;-8.436;2023-03-04T01:39:04;100984.66;;;6.73;100.00
61318;BME280;47201;40.428;-8.436;2023-03-04T01:41:24;100996.75;;;6.72;100.00
61318;BME280;47201;40.428;-8.436;2023-03-04T01:43:44;100998.41;;;6.67;100.00
61318;BME280;47201;40.428;-8.436;2023-03-04T01:46:04;100994.88;;;6.63;100.00
61318;BME280;47201;40.428;-8.436;2023-03-04T01:48:28;100997.47;;;6.63;100.00
61318;BME280;47201;40.428;-8.436;2023-03-04T01:50:31;100998.28;;;6.61;100.00
61318;BME280;47201;40.428;-8.436;2023-03-04T01:52:50;100995.63;;;6.58;100.00
61318;BME280;47201;40.428;-8.436;2023-03-04T01:55:16;100996.41;;;6.54;100.00
61318;BME280;47201;40.428;-8.436;2023-03-04T01:57:21;100999.94;;;6.57;100.00
61318;BME280;47201;40.428;-8.436;2023-03-04T01:59:40;100987.94;;;6.64;100.00
61318;BME280;47201;40.428;-8.436;2023-03-04T02:01:59;100986.41;;;6.74;100.00
61318;BME280;47201;40.428;-8.436;2023-03-04T02:04:23;100977.69;;;6.70;100.00
61318;BME280;47201;40.428;-8.436;2023-03-04T02:06:42;100976.69;;;6.65;100.00
61318;BME280;47201;40.428;-8.436;2023-03-04T02:09:03;100961.84;;;6.58;100.00
61318;BME280;47201;40.428;-8.436;2023-03-04T02:11:22;100966.19;;;6.57;100.00
61318;BME280;47201;40.428;-8.436;2023-03-04T02:13:42;100959.16;;;6.53;100.00
61318;BME280;47201;40.428;-8.436;2023-03-04T02:15:44;100957.28;;;6.44;100.00
61318;BME280;47201;40.428;-8.436;2023-03-04T02:17:45;100956.44;;;6.47;100.00
61318;BME280;47201;40.428;-8.436;2023-03-04T02:22:24;100951.41;;;6.55;100.00
61318;BME280;47201;40.428;-8.436;2023-03-04T02:24:30;100944.47;;;6.54;100.00
61318;BME280;47201;40.428;-8.436;2023-03-04T02:26:52;100942.88;;;6.62;100.00
61318;BME280;47201;40.428;-8.436;2023-03-04T02:28:53;100945.69;;;6.74;100.00
61318;BME280;47201;40.428;-8.436;2023-03-04T02:30:54;100938.00;;;6.79;100.00
61318;BME280;47201;40.428;-8.436;2023-03-04T02:32:55;100940.81;;;6.93;100.00
61318;BME280;47201;40.428;-8.436;2023-03-04T02:34:56;100948.00;;;7.06;100.00
61318;BME280;47201;40.428;-8.436;2023-03-04T02:37:16;100952.53;;;7.20;100.00
61318;BME280;47201;40.428;-8.436;2023-03-04T02:39:21;100944.84;;;7.26;100.00
61318;BME280;47201;40.428;-8.436;2023-03-04T02:41:24;100938.88;;;7.33;100.00
61318;BME280;47201;40.428;-8.436;2023-03-04T02:43:25;100944.91;;;7.30;100.00
61318;BME280;47201;40.428;-8.436;2023-03-04T02:45:36;100944.91;;;7.30;100.00
61318;BME280;47201;40.428;-8.436;2023-03-04T02:47:39;100941.53;;;7.36;100.00
61318;BME280;47201;40.428;-8.436;2023-03-04T02:49:40;100956.31;;;7.40;100.00
61318;BME280;47201;40.428;-8.436;2023-03-04T02:51:40;100952.94;;;7.44;100.00
61318;BME280;47201;40.428;-8.436;2023-03-04T02:53:44;100954.72;;;7.49;100.00
61318;BME280;47201;40.428;-8.436;2023-03-04T02:56:04;100946.94;;;7.50;100.00
61318;BME280;47201;40.428;-8.436;2023-03-04T02:58:23;100950.34;;;7.46;100.00
61318;BME280;47201;40.428;-8.436;2023-03-04T03:00:44;100949.38;;;7.39;100.00
61318;BME280;47201;40.428;-8.436;2023-03-04T03:02:45;100957.09;;;7.35;100.00
61318;BME280;47201;40.428;-8.436;2023-03-04T03:04:46;100953.56;;;7.31;100.00
61318;BME280;47201;40.428;-8.436;2023-03-04T03:06:50;100952.69;;;7.29;100.00
61318;BME280;47201;40.428;-8.436;2023-03-04T03:08:50;100950.94;;;7.28;100.00
61318;BME280;47201;40.428;-8.436;2023-03-04T03:10:51;100946.56;;;7.25;100.00
61318;BME280;47201;40.428;-8.436;2023-03-04T03:12:52;100943.06;;;7.23;100.00
61318;BME280;47201;40.428;-8.436;2023-03-04T03:15:12;100954.31;;;7.24;100.00
61318;BME280;47201;40.428;-8.436;2023-03-04T03:17:15;100939.66;;;7.27;100.00
61318;BME280;47201;40.428;-8.436;2023-03-04T03:19:17;100940.47;;;7.25;100.00
61318;BME280;47201;40.428;-8.436;2023-03-04T03:21:36;100935.28;;;7.25;100.00
61318;BME280;47201;40.428;-8.436;2023-03-04T03:23:55;100930.00;;;7.19;100.00
61318;BME280;47201;40.428;-8.436;2023-03-04T03:26:14;100930.81;;;7.14;100.00
61318;BME280;47201;40.428;-8.436;2023-03-04T03:28:15;100927.22;;;7.09;100.00
61318;BME280;47201;40.428;-8.436;2023-03-04T03:30:16;100923.63;;;6.99;100.00
61318;BME280;47201;40.428;-8.436;2023-03-04T03:32:18;100921.84;;;6.97;100.00
61318;BME280;47201;40.428;-8.436;2023-03-04T03:34:18;100917.41;;;6.91;100.00
61318;BME280;47201;40.428;-8.436;2023-03-04T03:36:39;100915.56;;;6.86;100.00
61318;BME280;47201;40.428;-8.436;2023-03-04T03:38:59;100917.31;;;6.85;100.00
61318;BME280;47201;40.428;-8.436;2023-03-04T03:40:59;100918.16;;;6.84;100.00
61318;BME280;47201;40.428;-8.436;2023-03-04T03:43:00;100922.50;;;6.83;100.00
61318;BME280;47201;40.428;-8.436;2023-03-04T03:45:19;100922.50;;;6.85;100.00
61318;BME280;47201;40.428;-8.436;2023-03-04T03:47:19;100917.22;;;6.80;100.00
61318;BME280;47201;40.428;-8.436;2023-03-04T03:49:21;100920.03;;;6.93;100.00
61318;BME280;47201;40.428;-8.436;2023-03-04T03:51:40;100925.28;;;6.94;100.00
61318;BME280;47201;40.428;-8.436;2023-03-04T03:53:40;100920.06;;;6.94;100.00
61318;BME280;47201;40.428;-8.436;2023-03-04T03:55:41;100924.38;;;6.94;100.00
61318;BME280;47201;40.428;-8.436;2023-03-04T03:57:42;100921.84;;;6.97;100.00
61318;BME280;47201;40.428;-8.436;2023-03-04T03:59:43;100924.56;;;7.05;100.00
61318;BME280;47201;40.428;-8.436;2023-03-04T04:01:44;100923.69;;;7.03;100.00
61318;BME280;47201;40.428;-8.436;2023-03-04T04:03:44;100931.59;;;7.10;100.00
61318;BME280;47201;40.428;-8.436;2023-03-04T04:05:45;100930.81;;;7.14;100.00
61318;BME280;47201;40.428;-8.436;2023-03-04T04:08:04;100923.16;;;7.25;100.00
61318;BME280;47201;40.428;-8.436;2023-03-04T04:10:24;100922.41;;;7.33;100.00
61318;BME280;47201;40.428;-8.436;2023-03-04T04:12:24;100915.38;;;7.25;100.00
61318;BME280;47201;40.428;-8.436;2023-03-04T04:14:43;100915.41;;;7.28;100.00
61318;BME280;47201;40.428;-8.436;2023-03-04T04:17:04;100918.88;;;7.29;100.00
61318;BME280;47201;40.428;-8.436;2023-03-04T04:19:04;100916.06;;;7.17;100.00
61318;BME280;47201;40.428;-8.436;2023-03-04T04:21:06;100917.91;;;7.21;100.00
61318;BME280;47201;40.428;-8.436;2023-03-04T04:23:06;100923.94;;;7.20;100.00
61318;BME280;47201;40.428;-8.436;2023-03-04T04:25:25;100923.19;;;7.27;100.00
61318;BME280;47201;40.428;-8.436;2023-03-04T04:27:26;100922.28;;;7.26;100.00
61318;BME280;47201;40.428;-8.436;2023-03-04T04:29:27;100919.69;;;7.25;100.00
61318;BME280;47201;40.428;-8.436;2023-03-04T04:31:27;100931.78;;;7.23;100.00
61318;BME280;47201;40.428;-8.436;2023-03-04T04:33:50;100936.09;;;7.21;100.00
61318;BME280;47201;40.428;-8.436;2023-03-04T04:36:14;100928.19;;;7.14;100.00
61318;BME280;47201;40.428;-8.436;2023-03-04T04:38:34;100931.66;;;7.15;100.00
61318;BME280;47201;40.428;-8.436;2023-03-04T04:40:52;100934.19;;;7.12;100.00
61318;BME280;47201;40.428;-8.436;2023-03-04T04:43:14;100925.47;;;7.07;100.00
61318;BME280;47201;40.428;-8.436;2023-03-04T04:45:14;100922.03;;;7.09;100.00
61318;BME280;47201;40.428;-8.436;2023-03-04T04:47:15;100933.19;;;7.04;100.00
61318;BME280;47201;40.428;-8.436;2023-03-04T04:49:35;100927.16;;;7.05;100.00
61318;BME280;47201;40.428;-8.436;2023-03-04T04:51:36;100924.59;;;7.06;100.00
61318;BME280;47201;40.428;-8.436;2023-03-04T04:53:37;100910.81;;;7.12;100.00
61318;BME280;47201;40.428;-8.436;2023-03-04T04:55:57;100915.16;;;7.13;100.00
61318;BME280;47201;40.428;-8.436;2023-03-04T04:57:57;100921.94;;;7.05;100.00
61318;BME280;47201;40.428;-8.436;2023-03-04T05:00:13;100913.31;;;7.06;100.00
61318;BME280;47201;40.428;-8.436;2023-03-04T05:02:17;100923.69;;;7.03;100.00
61318;BME280;47201;40.428;-8.436;2023-03-04T05:04:17;100913.19;;;6.98;100.00
61318;BME280;47201;40.428;-8.436;2023-03-04T05:06:19;100918.41;;;6.98;100.00
61318;BME280;47201;40.428;-8.436;2023-03-04T05:08:22;100909.63;;;6.93;100.00
61318;BME280;47201;40.428;-8.436;2023-03-04T05:10:23;100915.53;;;6.82;100.00
61318;BME280;47201;40.428;-8.436;2023-03-04T05:12:43;100919.88;;;6.83;100.00
61318;BME280;47201;40.428;-8.436;2023-03-04T05:14:45;100924.06;;;6.75;100.00
61318;BME280;47201;40.428;-8.436;2023-03-04T05:16:45;100927.50;;;6.73;100.00
61318;BME280;47201;40.428;-8.436;2023-03-04T05:18:48;100924.09;;;6.78;100.00
61318;BME280;47201;40.428;-8.436;2023-03-04T05:20:50;100920.66;;;6.79;99.93
61318;BME280;47201;40.428;-8.436;2023-03-04T05:22:51;100921.56;;;6.81;99.86
61318;BME280;47201;40.428;-8.436;2023-03-04T05:25:11;100924.06;;;6.75;100.00
61318;BME280;47201;40.428;-8.436;2023-03-04T05:27:12;100918.81;;;6.72;100.00
61318;BME280;47201;40.428;-8.436;2023-03-04T05:29:13;100918.06;;;6.79;99.21
61318;BME280;47201;40.428;-8.436;2023-03-04T05:31:14;100915.38;;;6.73;99.53
61318;BME280;47201;40.428;-8.436;2023-03-04T05:33:15;100919.69;;;6.73;98.39
61318;BME280;47201;40.428;-8.436;2023-03-04T05:35:19;100920.53;;;6.72;96.35
61318;BME280;47201;40.428;-8.436;2023-03-04T05:37:20;100930.00;;;6.68;97.02
61318;BME280;47201;40.428;-8.436;2023-03-04T05:39:21;100924.91;;;6.73;94.69
61318;BME280;47201;40.428;-8.436;2023-03-04T05:41:22;100920.66;;;6.79;94.56
61318;BME280;47201;40.428;-8.436;2023-03-04T05:43:41;100925.00;;;6.79;93.83
61318;BME280;47201;40.428;-8.436;2023-03-04T05:45:43;100928.47;;;6.79;92.87
61318;BME280;47201;40.428;-8.436;2023-03-04T05:47:44;100926.75;;;6.80;91.66
61318;BME280;47201;40.428;-8.436;2023-03-04T05:49:45;100929.38;;;6.81;91.16
61318;BME280;47201;40.428;-8.436;2023-03-04T05:52:05;100930.22;;;6.82;90.77
61318;BME280;47201;40.428;-8.436;2023-03-04T05:54:25;100927.53;;;6.76;90.31
61318;BME280;47201;40.428;-8.436;2023-03-04T05:56:44;100926.66;;;6.74;89.15
61318;BME280;47201;40.428;-8.436;2023-03-04T05:58:45;100934.47;;;6.75;89.13
61318;BME280;47201;40.428;-8.436;2023-03-04T06:00:50;100932.06;;;6.86;87.65
61318;BME280;47201;40.428;-8.436;2023-03-04T06:02:50;100942.38;;;6.81;88.44
61318;BME280;47201;40.428;-8.436;2023-03-04T06:04:51;100943.03;;;6.71;88.51
61318;BME280;47201;40.428;-8.436;2023-03-04T06:06:51;100953.31;;;6.65;89.60
61318;BME280;47201;40.428;-8.436;2023-03-04T06:08:52;100943.84;;;6.67;88.63
61318;BME280;47201;40.428;-8.436;2023-03-04T06:10:54;100951.53;;;6.62;88.34
61318;BME280;47201;40.428;-8.436;2023-03-04T06:12:55;100950.53;;;6.56;88.70
61318;BME280;47201;40.428;-8.436;2023-03-04T06:14:56;100951.38;;;6.53;89.82
61318;BME280;47201;40.428;-8.436;2023-03-04T06:17:15;100945.22;;;6.48;88.98
61318;BME280;47201;40.428;-8.436;2023-03-04T06:19:34;100956.44;;;6.45;87.15
61318;BME280;47201;40.428;-8.436;2023-03-04T06:21:55;100950.44;;;6.49;86.94
61318;BME280;47201;40.428;-8.436;2023-03-04T06:23:55;100947.78;;;6.46;86.56
61318;BME280;47201;40.428;-8.436;2023-03-04T06:25:56;100951.28;;;6.48;85.45
61318;BME280;47201;40.428;-8.436;2023-03-04T06:27:58;100945.31;;;6.53;84.85
61318;BME280;47201;40.428;-8.436;2023-03-04T06:30:00;100943.47;;;6.48;85.15
61318;BME280;47201;40.428;-8.436;2023-03-04T06:32:19;100939.03;;;6.41;84.95
61318;BME280;47201;40.428;-8.436;2023-03-04T06:34:38;100950.22;;;6.37;85.58
61318;BME280;47201;40.428;-8.436;2023-03-04T06:36:39;100949.34;;;6.37;84.07
61318;BME280;47201;40.428;-8.436;2023-03-04T06:38:58;100957.09;;;6.35;84.38
61318;BME280;47201;40.428;-8.436;2023-03-04T06:41:19;100952.81;;;6.37;82.98
61318;BME280;47201;40.428;-8.436;2023-03-04T06:43:20;100963.13;;;6.34;84.08
61318;BME280;47201;40.428;-8.436;2023-03-04T06:45:20;100964.88;;;6.35;84.74
61318;BME280;47201;40.428;-8.436;2023-03-04T06:47:40;100958.81;;;6.34;84.42
61318;BME280;47201;40.428;-8.436;2023-03-04T06:49:42;100949.38;;;6.38;82.64
61318;BME280;47201;40.428;-8.436;2023-03-04T06:51:43;100961.56;;;6.42;82.62
61318;BME280;47201;40.428;-8.436;2023-03-04T06:53:43;100961.66;;;6.48;81.23
61318;BME280;47201;40.428;-8.436;2023-03-04T06:55:45;100958.09;;;6.42;81.95
61318;BME280;47201;40.428;-8.436;2023-03-04T06:57:46;100954.69;;;6.44;81.61
61318;BME280;47201;40.428;-8.436;2023-03-04T06:59:49;100958.22;;;6.49;81.09
61318;BME280;47201;40.428;-8.436;2023-03-04T07:01:49;100954.16;;;6.62;79.95
61318;BME280;47201;40.428;-8.436;2023-03-04T07:03:51;100967.13;;;6.61;80.43
61318;BME280;47201;40.428;-8.436;2023-03-04T07:05:51;100968.88;;;6.63;80.34
61318;BME280;47201;40.428;-8.436;2023-03-04T07:07:52;100965.41;;;6.63;80.92
61318;BME280;47201;40.428;-8.436;2023-03-04T07:09:52;100965.53;;;6.69;80.66
61318;BME280;47201;40.428;-8.436;2023-03-04T07:11:53;100973.16;;;6.61;81.96
61318;BME280;47201;40.428;-8.436;2023-03-04T07:14:12;100967.97;;;6.61;82.02
61318;BME280;47201;40.428;-8.436;2023-03-04T07:16:31;100971.41;;;6.60;82.21
61318;BME280;47201;40.428;-8.436;2023-03-04T07:18:33;100969.09;;;6.74;80.20
61318;BME280;47201;40.428;-8.436;2023-03-04T07:20:52;100962.25;;;6.79;80.49
61318;BME280;47201;40.428;-8.436;2023-03-04T07:22:52;100965.00;;;6.87;79.80
61318;BME280;47201;40.428;-8.436;2023-03-04T07:24:53;100972.69;;;6.81;81.44
61318;BME280;47201;40.428;-8.436;2023-03-04T07:26:53;100974.47;;;6.83;81.27
61318;BME280;47201;40.428;-8.436;2023-03-04T07:28:54;100980.63;;;6.90;81.58
61318;BME280;47201;40.428;-8.436;2023-03-04T07:30:56;100988.41;;;6.90;82.15
61318;BME280;47201;40.428;-8.436;2023-03-04T07:32:57;100979.94;;;6.99;82.46
61318;BME280;47201;40.428;-8.436;2023-03-04T07:35:19;100980.16;;;7.13;80.88
61318;BME280;47201;40.428;-8.436;2023-03-04T07:37:19;100982.97;;;7.25;79.16
61318;BME280;47201;40.428;-8.436;2023-03-04T07:39:40;100984.03;;;7.38;77.09
61318;BME280;47201;40.428;-8.436;2023-03-04T07:41:40;100993.75;;;7.50;76.33
61318;BME280;47201;40.428;-8.436;2023-03-04T07:43:59;100993.97;;;7.64;75.11
61318;BME280;47201;40.428;-8.436;2023-03-04T07:46:18;100994.19;;;7.78;74.38
61318;BME280;47201;40.428;-8.436;2023-03-04T07:48:22;101002.19;;;7.92;72.79
61318;BME280;47201;40.428;-8.436;2023-03-04T07:50:24;100993.09;;;8.25;70.70
61318;BME280;47201;40.428;-8.436;2023-03-04T07:52:24;100985.63;;;9.45;67.35
61318;BME280;47201;40.428;-8.436;2023-03-04T07:54:24;100995.94;;;11.15;61.15
61318;BME280;47201;40.428;-8.436;2023-03-04T07:56:44;100997.78;;;13.32;55.34
61318;BME280;47201;40.428;-8.436;2023-03-04T07:58:49;100988.59;;;15.17;50.62
61318;BME280;47201;40.428;-8.436;2023-03-04T08:01:16;100989.09;;;17.13;46.35
61318;BME280;47201;40.428;-8.436;2023-03-04T08:03:35;100994.09;;;18.84;43.31
61318;BME280;47201;40.428;-8.436;2023-03-04T08:05:54;100999.13;;;20.00;40.01
61318;BME280;47201;40.428;-8.436;2023-03-04T08:07:55;100997.84;;;21.03;40.10
61318;BME280;47201;40.428;-8.436;2023-03-04T08:09:57;101004.25;;;22.04;37.65
61318;BME280;47201;40.428;-8.436;2023-03-04T08:11:58;101005.91;;;22.65;37.60
61318;BME280;47201;40.428;-8.436;2023-03-04T08:14:03;101010.72;;;22.76;36.22
61318;BME280;47201;40.428;-8.436;2023-03-04T08:16:03;101009.06;;;23.47;36.79
61318;BME280;47201;40.428;-8.436;2023-03-04T08:18:23;101010.69;;;23.50;36.08
61318;BME280;47201;40.428;-8.436;2023-03-04T08:20:42;101005.38;;;23.67;37.95
61318;BME280;47201;40.428;-8.436;2023-03-04T08:22:44;101003.81;;;24.14;36.27
61318;BME280;47201;40.428;-8.436;2023-03-04T08:24:44;101016.66;;;24.73;36.94
61318;BME280;47201;40.428;-8.436;2023-03-04T08:27:05;101022.84;;;25.22;37.84
61318;BME280;47201;40.428;-8.436;2023-03-04T08:29:06;101035.25;;;25.23;39.20
61318;BME280;47201;40.428;-8.436;2023-03-04T08:31:29;101030.38;;;24.17;43.44
61318;BME280;47201;40.428;-8.436;2023-03-04T08:33:49;101030.69;;;24.45;45.34
61318;BME280;47201;40.428;-8.436;2023-03-04T08:36:09;101030.03;;;24.73;46.27
61318;BME280;47201;40.428;-8.436;2023-03-04T08:38:09;101034.19;;;23.96;49.59
61318;BME280;47201;40.428;-8.436;2023-03-04T08:40:29;101038.78;;;23.22;53.00
61318;BME280;47201;40.428;-8.436;2023-03-04T08:42:30;101044.69;;;23.46;53.74
61318;BME280;47201;40.428;-8.436;2023-03-04T08:44:32;101044.44;;;24.21;53.86
61318;BME280;47201;40.428;-8.436;2023-03-04T08:46:51;101040.09;;;25.16;52.15
61318;BME280;47201;40.428;-8.436;2023-03-04T08:49:11;101045.22;;;25.96;51.67
61318;BME280;47201;40.428;-8.436;2023-03-04T08:51:13;101047.78;;;26.28;52.15
61318;BME280;47201;40.428;-8.436;2023-03-04T08:53:32;101056.84;;;26.40;51.45
61318;BME280;47201;40.428;-8.436;2023-03-04T08:55:51;101063.59;;;24.45;57.04
61318;BME280;47201;40.428;-8.436;2023-03-04T08:58:12;101067.16;;;24.62;57.70
61318;BME280;47201;40.428;-8.436;2023-03-04T09:00:32;101064.84;;;24.55;58.64
61318;BME280;47201;40.428;-8.436;2023-03-04T09:02:34;101069.03;;;24.44;59.25
61318;BME280;47201;40.428;-8.436;2023-03-04T09:04:36;101066.38;;;24.44;60.07
61318;BME280;47201;40.428;-8.436;2023-03-04T09:06:56;101071.06;;;25.36;58.26
61318;BME280;47201;40.428;-8.436;2023-03-04T09:09:15;101071.88;;;25.06;59.75
61318;BME280;47201;40.428;-8.436;2023-03-04T09:11:35;101065.91;;;24.85;59.94
61318;BME280;47201;40.428;-8.436;2023-03-04T09:13:54;101066.06;;;24.32;62.21
61318;BME280;47201;40.428;-8.436;2023-03-04T09:16:16;101067.03;;;24.97;61.09
61318;BME280;47201;40.428;-8.436;2023-03-04T09:18:17;101068.69;;;24.83;61.89
61318;BME280;47201;40.428;-8.436;2023-03-04T09:20:37;101078.16;;;24.73;61.49
61318;BME280;47201;40.428;-8.436;2023-03-04T09:22:38;101075.47;;;24.39;62.66
61318;BME280;47201;40.428;-8.436;2023-03-04T09:24:39;101074.72;;;24.71;62.69
61318;BME280;47201;40.428;-8.436;2023-03-04T09:26:39;101071.34;;;24.34;63.46
61318;BME280;47201;40.428;-8.436;2023-03-04T09:28:43;101076.72;;;24.50;63.68
61318;BME280;47201;40.428;-8.436;2023-03-04T09:30:45;101086.28;;;24.54;63.42
61318;BME280;47201;40.428;-8.436;2023-03-04T09:32:47;101080.78;;;24.23;63.67
61318;BME280;47201;40.428;-8.436;2023-03-04T09:34:48;101078.75;;;23.58;65.00
61318;BME280;47201;40.428;-8.436;2023-03-04T09:37:07;101075.03;;;23.98;65.30
61318;BME280;47201;40.428;-8.436;2023-03-04T09:39:26;101073.13;;;23.82;64.93
61318;BME280;47201;40.428;-8.436;2023-03-04T09:41:50;101069.03;;;23.57;66.31
61318;BME280;47201;40.428;-8.436;2023-03-04T09:43:55;101072.69;;;23.37;66.13
61318;BME280;47201;40.428;-8.436;2023-03-04T09:45:58;101076.47;;;23.14;66.77
61318;BME280;47201;40.428;-8.436;2023-03-04T09:48:00;101075.09;;;23.05;67.36
61318;BME280;47201;40.428;-8.436;2023-03-04T09:50:06;101085.81;;;23.42;66.59
61318;BME280;47201;40.428;-8.436;2023-03-04T09:52:33;101071.69;;;23.57;66.25
61318;BME280;47201;40.428;-8.436;2023-03-04T09:57:14;101080.16;;;22.92;67.16
61318;BME280;47201;40.428;-8.436;2023-03-04T09:59:24;101075.22;;;23.40;67.07
61318;BME280;47201;40.428;-8.436;2023-03-04T10:01:48;101077.66;;;23.80;66.54
61318;BME280;47201;40.428;-8.436;2023-03-04T10:04:15;101073.75;;;23.87;66.75
61318;BME280;47201;40.428;-8.436;2023-03-04T10:06:18;101066.31;;;24.28;65.81
61318;BME280;47201;40.428;-8.436;2023-03-04T10:10:59;101069.53;;;24.68;65.89
61318;BME280;47201;40.428;-8.436;2023-03-04T10:13:22;101057.78;;;25.34;64.83
61318;BME280;47201;40.428;-8.436;2023-03-04T10:15:47;101061.75;;;25.43;64.31
61318;BME280;47201;40.428;-8.436;2023-03-04T10:17:51;101061.00;;;24.93;65.47
61318;BME280;47201;40.428;-8.436;2023-03-04T10:22:28;101053.34;;;24.71;65.80
61318;BME280;47201;40.428;-8.436;2023-03-04T10:24:48;101058.69;;;24.53;66.26
61318;BME280;47201;40.428;-8.436;2023-03-04T10:26:51;101061.91;;;23.93;66.75
61318;BME280;47201;40.428;-8.436;2023-03-04T10:29:15;101063.91;;;23.53;67.28
61318;BME280;47201;40.428;-8.436;2023-03-04T10:31:36;101063.25;;;23.30;68.13
61318;BME280;47201;40.428;-8.436;2023-03-04T10:33:55;101058.81;;;23.83;67.85
61318;BME280;47201;40.428;-8.436;2023-03-04T10:38:15;101054.00;;;24.91;66.32
61318;BME280;47201;40.428;-8.436;2023-03-04T10:40:37;101044.84;;;25.11;66.29
61318;BME280;47201;40.428;-8.436;2023-03-04T10:42:58;101047.78;;;24.74;66.81
61318;BME280;47201;40.428;-8.436;2023-03-04T10:45:21;101045.94;;;24.09;67.23
61318;BME280;47201;40.428;-8.436;2023-03-04T10:47:41;101047.06;;;24.38;67.37
61318;BME280;47201;40.428;-8.436;2023-03-04T10:49:54;101050.91;;;24.66;67.33
61318;BME280;47201;40.428;-8.436;2023-03-04T10:52:37;101033.47;;;24.59;67.30
61318;BME280;47201;40.428;-8.436;2023-03-04T10:54:40;101040.31;;;24.81;67.71
61318;BME280;47201;40.428;-8.436;2023-03-04T10:56:52;101036.50;;;25.01;67.14
61318;BME280;47201;40.428;-8.436;2023-03-04T10:59:30;101037.38;;;25.48;66.59
61318;BME280;47201;40.428;-8.436;2023-03-04T11:01:52;101034.75;;;26.07;65.78
61318;BME280;47201;40.428;-8.436;2023-03-04T11:04:22;101031.38;;;26.18;65.32
61318;BME280;47201;40.428;-8.436;2023-03-04T11:06:43;101035.88;;;26.03;66.07
61318;BME280;47201;40.428;-8.436;2023-03-04T11:09:02;101035.16;;;25.40;66.75
61318;BME280;47201;40.428;-8.436;2023-03-04T11:11:27;101026.44;;;25.67;66.51
61318;BME280;47201;40.428;-8.436;2023-03-04T11:13:55;101020.84;;;25.56;66.24
61318;BME280;47201;40.428;-8.436;2023-03-04T11:16:02;101020.31;;;25.65;66.26
61318;BME280;47201;40.428;-8.436;2023-03-04T11:18:14;101012.69;;;25.88;66.19
61318;BME280;47201;40.428;-8.436;2023-03-04T11:20:28;101022.00;;;26.25;65.82
61318;BME280;47201;40.428;-8.436;2023-03-04T11:22:48;101011.34;;;26.53;65.78
61318;BME280;47201;40.428;-8.436;2023-03-04T11:25:00;101014.13;;;26.80;65.31